createdAt,value
2019-04-26T00:01:34.396Z,95.40
2019-04-26T00:04:06.609Z,95.40
2019-04-26T00:06:37.918Z,95.40
2019-04-26T00:09:24.834Z,95.40
2019-04-26T00:12:20.458Z,95.60
2019-04-26T00:15:10.082Z,95.50
2019-04-26T00:17:51.549Z,95.50
2019-04-26T00:20:22.892Z,95.50
2019-04-26T00:22:54.545Z,95.60
2019-04-26T00:25:26.118Z,95.70
2019-04-26T00:27:57.884Z,95.70
2019-04-26T00:30:29.302Z,95.80
2019-04-26T00:33:00.716Z,95.80
2019-04-26T00:35:32.443Z,95.80
2019-04-26T00:38:04.336Z,95.90
2019-04-26T00:40:35.620Z,95.90
2019-04-26T00:43:07.320Z,96.00
2019-04-26T00:45:40.251Z,96.10
2019-04-26T00:48:15.127Z,96.10
2019-04-26T00:50:47.744Z,96.20
2019-04-26T00:53:21.691Z,96.30
2019-04-26T00:55:54.658Z,96.40
2019-04-26T00:58:27.788Z,96.50
2019-04-26T01:01:01.255Z,96.50
2019-04-26T01:03:33.710Z,96.60
2019-04-26T01:06:07.284Z,96.60
2019-04-26T01:08:38.626Z,96.60
2019-04-26T01:11:09.724Z,96.70
2019-04-26T01:13:41.137Z,96.60
2019-04-26T01:16:12.521Z,96.80
2019-04-26T01:18:47.450Z,96.70
2019-04-26T01:21:22.666Z,96.80
2019-04-26T01:23:58.629Z,97.20
2019-04-26T01:26:34.127Z,96.90
2019-04-26T01:29:11.417Z,97.10
2019-04-26T01:32:00.365Z,97.40
2019-04-26T01:34:33.188Z,97.70
2019-04-26T01:37:05.644Z,97.80
2019-04-26T01:39:39.845Z,97.80
2019-04-26T01:42:22.311Z,97.80
2019-04-26T01:45:13.104Z,97.80
2019-04-26T01:47:47.261Z,97.90
2019-04-26T01:50:20.991Z,98.00
2019-04-26T01:52:55.766Z,98.00
2019-04-26T01:55:31.209Z,98.00
2019-04-26T01:58:06.083Z,98.10
2019-04-26T02:01:06.191Z,98.10
2019-04-26T02:03:37.893Z,98.30
2019-04-26T02:06:09.302Z,98.30
2019-04-26T02:08:40.725Z,98.40
2019-04-26T02:11:12.192Z,98.50
2019-04-26T02:13:44.418Z,98.50
2019-04-26T02:16:15.772Z,98.60
2019-04-26T02:18:47.632Z,98.60
2019-04-26T02:21:26.345Z,98.70
2019-04-26T02:24:16.259Z,98.80
2019-04-26T02:26:49.627Z,98.90
2019-04-26T02:29:26.957Z,98.90
2019-04-26T02:32:07.259Z,99.10
2019-04-26T02:34:40.424Z,99.10
2019-04-26T02:37:14.623Z,99.10
2019-04-26T02:39:45.920Z,99.10
2019-04-26T02:42:36.730Z,99.50
2019-04-26T02:45:49.068Z,99.70
2019-04-26T02:48:41.871Z,99.90
2019-04-26T02:51:20.157Z,99.90
2019-04-26T02:54:06.235Z,99.90
2019-04-26T02:56:43.930Z,99.90
2019-04-26T02:59:40.779Z,99.90
2019-04-26T03:02:30.133Z,99.90
2019-04-26T03:05:06.792Z,99.90
2019-04-26T03:08:04.949Z,99.90
2019-04-26T03:11:04.670Z,99.90
2019-04-26T03:13:54.792Z,99.90
2019-04-26T03:17:07.992Z,99.90
2019-04-26T03:20:02.260Z,99.90
2019-04-26T03:23:01.816Z,99.90
2019-04-26T03:25:48.362Z,99.90
2019-04-26T03:28:35.455Z,99.70
2019-04-26T03:31:51.946Z,99.70
2019-04-26T03:34:39.224Z,99.80
2019-04-26T03:37:45.822Z,99.90
2019-04-26T03:40:33.930Z,99.90
2019-04-26T03:43:44.672Z,99.90
2019-04-26T03:46:52.141Z,99.90
2019-04-26T03:50:17.639Z,99.90
2019-04-26T03:53:35.587Z,99.90
2019-04-26T03:56:43.505Z,99.90
2019-04-26T04:00:18.210Z,99.90
2019-04-26T04:03:33.601Z,99.90
2019-04-26T04:06:09.250Z,99.90
2019-04-26T04:08:51.320Z,99.90
2019-04-26T04:11:30.885Z,99.90
2019-04-26T04:14:10.034Z,99.90
2019-04-26T04:17:25.348Z,99.90
2019-04-26T04:20:34.538Z,99.90
2019-04-26T04:23:30.406Z,99.90
2019-04-26T04:26:06.698Z,99.90
2019-04-26T04:29:20.138Z,99.90
2019-04-26T04:31:57.330Z,99.90
2019-04-26T04:34:41.496Z,99.90
2019-04-26T04:37:16.689Z,99.90
2019-04-26T04:40:32.050Z,99.90
2019-04-26T04:43:28.312Z,99.90
2019-04-26T04:47:23.003Z,99.90
2019-04-26T04:50:21.684Z,99.90
2019-04-26T04:53:41.214Z,99.90
2019-04-26T04:56:58.181Z,99.90
2019-04-26T04:59:53.424Z,99.90
2019-04-26T05:03:15.321Z,99.90
2019-04-26T05:06:18.717Z,99.90
2019-04-26T05:09:14.231Z,99.90
2019-04-26T05:12:10.253Z,99.90
2019-04-26T05:15:52.808Z,99.90
2019-04-26T05:19:28.956Z,99.90
2019-04-26T05:23:18.630Z,99.90
2019-04-26T05:26:55.672Z,99.90
2019-04-26T05:30:31.397Z,99.90
2019-04-26T05:33:57.021Z,99.90
2019-04-26T05:37:19.869Z,99.90
2019-04-26T05:40:29.819Z,99.90
2019-04-26T05:43:50.159Z,99.90
2019-04-26T05:47:18.772Z,99.90
2019-04-26T05:51:18.876Z,99.90
2019-04-26T05:54:49.600Z,99.90
2019-04-26T05:58:22.111Z,99.90
2019-04-26T06:02:17.738Z,99.90
2019-04-26T06:05:25.979Z,99.90
2019-04-26T06:08:48.208Z,99.90
2019-04-26T06:11:33.702Z,99.90
2019-04-26T06:14:51.859Z,99.90
2019-04-26T06:18:12.902Z,99.90
2019-04-26T06:20:55.436Z,99.90
2019-04-26T06:24:14.102Z,99.90
2019-04-26T06:28:02.639Z,99.90
2019-04-26T06:31:31.635Z,99.90
2019-04-26T06:34:18.100Z,99.90
2019-04-26T06:37:17.879Z,99.90
2019-04-26T06:40:21.543Z,99.90
2019-04-26T06:43:15.564Z,99.90
2019-04-26T06:46:39.504Z,99.90
2019-04-26T06:50:03.473Z,99.90
2019-04-26T06:52:46.541Z,99.90
2019-04-26T06:55:37.359Z,99.90
2019-04-26T06:59:07.204Z,99.90
2019-04-26T07:02:02.938Z,99.90
2019-04-26T07:05:31.504Z,99.90
2019-04-26T07:08:38.946Z,99.90
2019-04-26T07:12:35.747Z,99.90
2019-04-26T07:15:50.121Z,99.80
2019-04-26T07:19:48.597Z,99.50
2019-04-26T07:23:00.479Z,99.30
2019-04-26T07:26:27.661Z,99.30
2019-04-26T07:29:55.133Z,99.10
2019-04-26T07:33:30.598Z,98.90
2019-04-26T07:37:04.715Z,98.90
2019-04-26T07:40:53.223Z,98.50
2019-04-26T07:44:21.105Z,98.70
2019-04-26T07:48:11.587Z,98.30
2019-04-26T07:51:57.136Z,98.10
2019-04-26T07:55:25.382Z,97.90
2019-04-26T07:59:12.873Z,97.80
2019-04-26T08:02:37.616Z,96.90
2019-04-26T08:05:29.920Z,96.30
2019-04-26T08:08:06.988Z,96.70
2019-04-26T08:10:43.720Z,96.70
2019-04-26T08:13:19.945Z,96.70
2019-04-26T08:16:22.227Z,96.40
2019-04-26T08:19:01.762Z,96.40
2019-04-26T08:21:42.473Z,96.40
2019-04-26T08:24:28.107Z,95.70
2019-04-26T08:27:19.657Z,95.30
2019-04-26T08:29:47.895Z,95.00
2019-04-26T08:32:28.216Z,95.20
2019-04-26T08:35:15.272Z,95.00
2019-04-26T08:37:54.352Z,94.50
2019-04-26T08:40:31.241Z,94.00
2019-04-26T08:43:18.121Z,93.80
2019-04-26T08:46:06.050Z,93.70
2019-04-26T08:48:47.823Z,93.90
2019-04-26T08:51:22.057Z,93.80
2019-04-26T08:53:58.252Z,94.20
2019-04-26T08:56:36.498Z,93.40
2019-04-26T08:59:19.931Z,93.40
2019-04-26T09:02:11.760Z,92.70
2019-04-26T09:05:11.028Z,93.00
2019-04-26T09:07:48.100Z,92.40
2019-04-26T09:10:23.736Z,91.50
2019-04-26T09:12:59.406Z,91.40
2019-04-26T09:16:08.608Z,91.10
2019-04-26T09:18:43.590Z,90.90
2019-04-26T09:21:17.101Z,90.30
2019-04-26T09:24:04.326Z,90.60
2019-04-26T09:26:54.781Z,91.20
2019-04-26T09:29:48.300Z,90.50
2019-04-26T09:32:24.228Z,90.00
2019-04-26T09:34:56.469Z,89.20
2019-04-26T09:37:27.787Z,89.40
2019-04-26T09:40:20.946Z,89.80
2019-04-26T09:42:51.928Z,90.10
2019-04-26T09:45:38.052Z,90.10
2019-04-26T09:48:18.778Z,90.30
2019-04-26T09:50:51.615Z,90.70
2019-04-26T09:53:23.274Z,90.40
2019-04-26T09:55:54.887Z,90.00
2019-04-26T09:58:26.793Z,89.00
2019-04-26T10:00:59.496Z,87.40
2019-04-26T10:03:30.808Z,88.00
2019-04-26T10:06:02.490Z,88.00
2019-04-26T10:08:33.811Z,87.60
2019-04-26T10:11:09.673Z,87.60
2019-04-26T10:14:10.968Z,86.50
2019-04-26T10:17:05.299Z,85.60
2019-04-26T10:19:45.063Z,84.40
2019-04-26T10:22:16.765Z,84.40
2019-04-26T10:24:48.681Z,82.10
2019-04-26T10:27:20.350Z,81.80
2019-04-26T10:29:56.150Z,82.30
2019-04-26T10:32:26.250Z,83.20
2019-04-26T10:34:58.000Z,84.10
2019-04-26T10:37:38.897Z,84.00
2019-04-26T10:40:02.596Z,83.50
2019-04-26T10:42:34.318Z,82.70
2019-04-26T10:45:10.470Z,82.80
2019-04-26T10:47:40.534Z,83.30
2019-04-26T10:50:12.550Z,82.50
2019-04-26T10:52:58.691Z,82.30
2019-04-26T10:55:55.079Z,82.30
2019-04-26T10:58:44.049Z,82.70
2019-04-26T11:01:16.335Z,82.20
2019-04-26T11:03:47.910Z,82.30
2019-04-26T11:06:19.231Z,82.70
2019-04-26T11:08:50.916Z,82.30
2019-04-26T11:11:22.314Z,82.80
2019-04-26T11:13:57.416Z,83.10
2019-04-26T11:16:27.955Z,83.10
2019-04-26T11:19:01.111Z,82.50
2019-04-26T11:21:32.587Z,82.70
2019-04-26T11:24:04.243Z,82.50
2019-04-26T11:26:36.270Z,83.30
2019-04-26T11:29:07.579Z,81.80
2019-04-26T11:31:38.860Z,82.50
2019-04-26T11:34:10.448Z,83.30
2019-04-26T11:36:42.956Z,84.60
2019-04-26T11:39:16.063Z,85.00
2019-04-26T11:41:48.178Z,84.90
2019-04-26T11:44:23.064Z,84.70
2019-04-26T11:46:52.370Z,85.10
2019-04-26T11:49:23.506Z,84.90
2019-04-26T11:51:58.533Z,83.60
2019-04-26T11:54:28.113Z,82.80
2019-04-26T11:56:59.454Z,82.50
2019-04-26T11:59:31.890Z,81.80
2019-04-26T12:02:04.603Z,80.90
2019-04-26T12:05:06.145Z,80.20
2019-04-26T12:07:42.120Z,79.60
2019-04-26T12:10:14.475Z,79.00
2019-04-26T12:12:47.082Z,78.90
2019-04-26T12:15:29.757Z,78.50
2019-04-26T12:17:58.294Z,78.70
2019-04-26T12:20:26.937Z,79.40
2019-04-26T12:22:58.308Z,81.90
2019-04-26T12:25:31.148Z,83.10
2019-04-26T12:28:06.090Z,84.00
2019-04-26T12:30:36.273Z,84.60
2019-04-26T12:33:07.865Z,85.30
2019-04-26T12:35:39.453Z,86.30
2019-04-26T12:38:11.501Z,86.50
2019-04-26T12:40:46.251Z,86.00
2019-04-26T12:43:20.168Z,85.10
2019-04-26T12:46:14.182Z,84.80
2019-04-26T12:48:49.626Z,84.70
2019-04-26T12:51:20.150Z,85.20
2019-04-26T12:53:51.854Z,86.60
2019-04-26T12:56:26.627Z,86.90
2019-04-26T12:58:57.056Z,86.90
2019-04-26T13:01:28.834Z,87.50
2019-04-26T13:04:10.358Z,87.10
2019-04-26T13:06:49.757Z,86.30
2019-04-26T13:09:26.591Z,86.10
2019-04-26T13:12:20.359Z,87.20
2019-04-26T13:14:59.925Z,86.80
2019-04-26T13:17:37.448Z,87.10
2019-04-26T13:20:09.429Z,87.50
2019-04-26T13:22:46.302Z,87.90
2019-04-26T13:25:20.090Z,88.60
2019-04-26T13:27:47.514Z,89.40
2019-04-26T13:30:18.906Z,89.50
2019-04-26T13:32:53.507Z,90.00
2019-04-26T13:35:25.765Z,90.20
2019-04-26T13:37:57.232Z,90.20
2019-04-26T13:40:29.481Z,90.60
2019-04-26T13:43:01.362Z,90.80
2019-04-26T13:45:52.064Z,91.00
2019-04-26T13:48:30.319Z,91.30
2019-04-26T13:51:05.877Z,91.40
2019-04-26T13:53:37.239Z,91.30
2019-04-26T13:56:08.606Z,91.80
2019-04-26T13:58:40.476Z,92.20
2019-04-26T14:01:14.577Z,92.40
2019-04-26T14:03:45.166Z,92.70
2019-04-26T14:06:16.380Z,93.10
2019-04-26T14:08:47.943Z,93.50
2019-04-26T14:11:20.507Z,93.70
2019-04-26T14:13:55.475Z,93.90
2019-04-26T14:16:27.575Z,93.90
2019-04-26T14:18:59.083Z,94.00
2019-04-26T14:21:33.200Z,94.30
2019-04-26T14:24:34.539Z,94.60
2019-04-26T14:27:17.809Z,94.70
2019-04-26T14:29:49.388Z,95.20
2019-04-26T14:32:22.829Z,95.40
2019-04-26T14:34:53.630Z,95.80
2019-04-26T14:37:25.285Z,95.90
2019-04-26T14:39:59.179Z,95.90
2019-04-26T14:42:34.461Z,95.90
2019-04-26T14:45:06.161Z,95.90
2019-04-26T14:47:47.207Z,96.00
2019-04-26T14:50:14.270Z,96.10
2019-04-26T14:52:43.255Z,96.20
2019-04-26T14:55:16.444Z,96.20
2019-04-26T14:57:51.359Z,96.40
2019-04-26T15:00:27.191Z,96.60
2019-04-26T15:03:09.974Z,96.60
2019-04-26T15:05:59.141Z,96.70
2019-04-26T15:08:32.581Z,97.00
2019-04-26T15:11:04.570Z,96.80
2019-04-26T15:13:40.483Z,97.20
2019-04-26T15:16:11.846Z,97.60
2019-04-26T15:18:42.893Z,97.80
2019-04-26T15:21:14.260Z,98.00
2019-04-26T15:23:45.880Z,98.10
2019-04-26T15:26:18.578Z,98.20
2019-04-26T15:28:51.574Z,98.70
2019-04-26T15:31:24.963Z,98.30
2019-04-26T15:33:56.587Z,98.50
2019-04-26T15:36:28.261Z,98.70
2019-04-26T15:39:02.708Z,98.90
2019-04-26T15:41:47.168Z,98.80
2019-04-26T15:44:49.176Z,98.90
2019-04-26T15:47:29.661Z,99.10
2019-04-26T15:50:15.895Z,99.40
2019-04-26T15:52:47.140Z,99.70
2019-04-26T15:55:18.339Z,99.90
2019-04-26T15:57:49.656Z,99.90
2019-04-26T16:00:22.485Z,99.90
2019-04-26T16:02:54.573Z,99.90
2019-04-26T16:05:29.487Z,99.90
2019-04-26T16:08:03.279Z,99.90
2019-04-26T16:10:37.131Z,99.90
2019-04-26T16:13:18.076Z,99.90
2019-04-26T16:15:43.609Z,99.90
2019-04-26T16:18:16.940Z,99.90
2019-04-26T16:20:46.907Z,99.90
2019-04-26T16:23:18.351Z,99.90
2019-04-26T16:25:49.741Z,99.90
2019-04-26T16:28:49.147Z,99.90
2019-04-26T16:31:32.199Z,99.90
2019-04-26T16:34:10.895Z,99.90
2019-04-26T16:36:43.952Z,99.90
2019-04-26T16:39:14.403Z,99.90
2019-04-26T16:41:45.674Z,99.90
2019-04-26T16:44:19.188Z,99.90
2019-04-26T16:46:53.934Z,99.90
2019-04-26T16:49:26.670Z,99.90
2019-04-26T16:52:05.092Z,99.90
2019-04-26T16:54:34.289Z,99.90
2019-04-26T16:57:10.942Z,99.90
2019-04-26T16:59:46.567Z,99.90
2019-04-26T17:02:13.358Z,99.90
2019-04-26T17:04:44.390Z,99.90
2019-04-26T17:07:22.043Z,99.90
2019-04-26T17:09:58.157Z,99.90
2019-04-26T17:12:22.611Z,99.90
2019-04-26T17:14:55.198Z,99.90
2019-04-26T17:17:26.804Z,99.90
2019-04-26T17:19:58.490Z,99.90
2019-04-26T17:22:58.466Z,99.90
2019-04-26T17:25:44.981Z,99.90
2019-04-26T17:28:18.002Z,99.90
2019-04-26T17:30:50.447Z,99.90
2019-04-26T17:33:24.140Z,99.90
2019-04-26T17:35:55.396Z,99.90
2019-04-26T17:38:26.790Z,99.90
2019-04-26T17:40:58.219Z,99.90
2019-04-26T17:43:30.603Z,99.90
2019-04-26T17:46:01.693Z,99.90
2019-04-26T17:48:33.705Z,99.90
2019-04-26T17:51:05.173Z,99.90
2019-04-26T17:53:37.148Z,99.90
2019-04-26T17:56:11.070Z,99.90
2019-04-26T17:58:51.226Z,99.90
2019-04-26T18:01:41.166Z,99.90
2019-04-26T18:03:54.308Z,99.90
2019-04-26T18:06:29.392Z,99.90
2019-04-26T18:08:56.086Z,99.90
2019-04-26T18:11:27.477Z,99.90
2019-04-26T18:13:58.950Z,99.90
2019-04-26T18:16:30.847Z,99.90
2019-04-26T18:19:29.950Z,99.90
2019-04-26T18:22:16.065Z,99.90
2019-04-26T18:24:47.639Z,99.90
2019-04-26T18:27:18.975Z,99.90
2019-04-26T18:29:50.203Z,99.90
2019-04-26T18:32:21.943Z,99.90
2019-04-26T18:34:53.654Z,99.90
2019-04-26T18:37:25.086Z,99.90
2019-04-26T18:39:57.444Z,99.90
2019-04-26T18:42:29.270Z,99.90
2019-04-26T18:45:00.955Z,99.90
2019-04-26T18:47:36.997Z,99.90
2019-04-26T18:50:09.671Z,99.90
2019-04-26T18:52:52.683Z,99.90
2019-04-26T18:55:29.882Z,99.90
2019-04-26T18:58:03.374Z,99.90
2019-04-26T19:00:39.114Z,99.90
2019-04-26T19:03:13.354Z,99.90
2019-04-26T19:05:43.562Z,99.90
2019-04-26T19:08:15.192Z,99.90
2019-04-26T19:10:58.362Z,99.90
2019-04-26T19:13:36.452Z,99.90
2019-04-26T19:16:21.575Z,99.90
2019-04-26T19:18:57.747Z,99.90
2019-04-26T19:21:54.508Z,99.90
2019-04-26T19:24:25.519Z,99.90
2019-04-26T19:26:56.735Z,99.90
2019-04-26T19:29:33.649Z,99.90
2019-04-26T19:32:04.099Z,99.90
2019-04-26T19:34:34.295Z,99.90
2019-04-26T19:37:06.112Z,99.90
2019-04-26T19:39:37.972Z,99.90
2019-04-26T19:42:11.694Z,99.90
2019-04-26T19:44:44.479Z,99.90
2019-04-26T19:47:39.242Z,99.90
2019-04-26T19:50:17.855Z,99.90
2019-04-26T19:53:16.551Z,99.90
2019-04-26T19:55:54.984Z,99.90
2019-04-26T19:58:28.727Z,99.90
2019-04-26T20:01:02.269Z,99.90
2019-04-26T20:03:34.129Z,99.90
2019-04-26T20:06:14.123Z,99.90
2019-04-26T20:08:45.769Z,99.90
2019-04-26T20:11:18.660Z,99.90
2019-04-26T20:13:51.935Z,99.90
2019-04-26T20:16:22.678Z,99.90
2019-04-26T20:18:54.023Z,99.90
2019-04-26T20:21:25.274Z,99.90
2019-04-26T20:23:56.537Z,99.90
2019-04-26T20:26:28.166Z,99.90
2019-04-26T20:28:59.830Z,99.90
2019-04-26T20:31:45.043Z,99.90
2019-04-26T20:34:14.450Z,99.90
2019-04-26T20:36:47.821Z,99.90
2019-04-26T20:39:21.093Z,99.90
2019-04-26T20:42:00.548Z,99.90
2019-04-26T20:44:28.480Z,99.90
2019-04-26T20:46:56.795Z,99.90
2019-04-26T20:49:28.653Z,99.90
2019-04-26T20:52:01.983Z,99.90
2019-04-26T20:54:33.344Z,99.90
2019-04-26T20:57:04.624Z,99.90
2019-04-26T20:59:35.801Z,99.90
2019-04-26T21:02:08.180Z,99.90
2019-04-26T21:04:42.262Z,99.90
2019-04-26T21:07:14.155Z,99.90
2019-04-26T21:09:45.578Z,99.90
2019-04-26T21:12:18.489Z,99.90
2019-04-26T21:14:49.832Z,99.90
2019-04-26T21:17:24.259Z,99.90
2019-04-26T21:19:54.940Z,99.90
2019-04-26T21:22:28.726Z,99.90
2019-04-26T21:25:05.127Z,99.90
2019-04-26T21:27:52.875Z,99.90
2019-04-26T21:30:52.399Z,99.90
2019-04-26T21:33:35.843Z,99.90
2019-04-26T21:36:09.413Z,99.90
2019-04-26T21:38:48.867Z,99.90
2019-04-26T21:41:23.564Z,99.90
2019-04-26T21:43:55.606Z,99.90
2019-04-26T21:46:28.850Z,99.90
2019-04-26T21:49:00.063Z,99.90
2019-04-26T21:51:31.293Z,99.90
2019-04-26T21:54:03.760Z,99.90
2019-04-26T21:56:35.471Z,99.90
2019-04-26T21:59:07.101Z,99.90
2019-04-26T22:01:38.732Z,99.90
2019-04-26T22:04:13.296Z,99.90
2019-04-26T22:06:45.014Z,99.90
2019-04-26T22:09:28.495Z,99.90
2019-04-26T22:11:59.046Z,99.90
2019-04-26T22:14:34.195Z,99.90
2019-04-26T22:17:36.360Z,99.90
2019-04-26T22:20:25.670Z,99.90
2019-04-26T22:23:11.698Z,99.90
2019-04-26T22:25:44.560Z,99.90
2019-04-26T22:28:15.847Z,99.90
2019-04-26T22:30:47.722Z,99.90
2019-04-26T22:33:19.392Z,99.90
2019-04-26T22:35:55.306Z,99.90
2019-04-26T22:38:26.759Z,99.90
2019-04-26T22:40:57.731Z,99.90
2019-04-26T22:43:49.591Z,99.90
2019-04-26T22:46:47.157Z,99.90
2019-04-26T22:49:13.956Z,99.90
2019-04-26T22:51:45.519Z,99.90
2019-04-26T22:54:16.834Z,99.90
2019-04-26T22:56:48.824Z,99.90
2019-04-26T22:59:19.992Z,99.90
2019-04-26T23:01:51.365Z,99.90
2019-04-26T23:04:26.361Z,99.90
2019-04-26T23:06:56.516Z,99.90
2019-04-26T23:09:27.869Z,99.90
2019-04-26T23:12:06.498Z,99.90
2019-04-26T23:14:52.178Z,99.90
2019-04-26T23:17:39.696Z,99.90
2019-04-26T23:20:29.102Z,99.90
2019-04-26T23:23:00.554Z,99.90
2019-04-26T23:25:32.910Z,99.90
2019-04-26T23:28:05.006Z,99.90
2019-04-26T23:30:36.313Z,99.90
2019-04-26T23:33:07.604Z,99.90
2019-04-26T23:35:43.431Z,99.90
2019-04-26T23:38:13.456Z,99.90
2019-04-26T23:40:44.785Z,99.90
2019-04-26T23:43:16.044Z,99.90
2019-04-26T23:45:48.481Z,99.90
2019-04-26T23:48:20.467Z,99.90
2019-04-26T23:50:51.700Z,99.90
2019-04-26T23:53:24.094Z,99.90
2019-04-26T23:55:55.659Z,99.90
2019-04-26T23:58:27.151Z,99.90
